Time;durP1;ratioP1;P1;durP2;ratioP2;P2;SDS_P1;SDS_P2;PMS_P1;PMS_P2;Temp;Humidity;BMP_temperature;BMP_pressure;BME280_temperature;BME280_humidity;BME280_pressure;Samples;Min_cycle;Max_cycle;Signal;HPM_P1;HPM_P2
2023/08/11 00:01:57;;;;;;;6.80;4.00;;;22.60;96.80;;;;;;4070975;29;20058;-63
2023/08/11 00:03:59;;;;;;;7.85;4.18;;;22.60;96.70;;;;;;4060421;29;20053;-63
2023/08/11 00:06:01;;;;;;;14.52;3.83;;;22.60;96.70;;;;;;4054981;29;20083;-60
2023/08/11 00:08:05;;;;;;;8.30;4.30;;;22.60;96.90;;;;;;4055382;29;20123;-62
2023/08/11 00:10:09;;;;;;;6.18;3.90;;;22.50;96.90;;;;;;4055413;29;20086;-63
2023/08/11 00:12:11;;;;;;;7.18;4.10;;;22.50;97.00;;;;;;4054646;29;20048;-61
2023/08/11 00:14:13;;;;;;;5.88;3.60;;;22.50;96.90;;;;;;4058687;29;20467;-61
2023/08/11 00:16:16;;;;;;;7.68;3.60;;;22.50;96.80;;;;;;4071070;29;20080;-62
2023/08/11 00:18:18;;;;;;;5.93;3.47;;;22.50;96.80;;;;;;4071546;29;20430;-60
2023/08/11 00:20:20;;;;;;;6.45;3.47;;;22.50;97.10;;;;;;4070922;29;20048;-60
2023/08/11 00:22:22;;;;;;;6.53;3.25;;;22.50;97.00;;;;;;4070957;29;20055;-61
2023/08/11 00:24:26;;;;;;;6.25;3.50;;;22.40;96.90;;;;;;4070077;29;20479;-61
2023/08/11 00:26:30;;;;;;;6.80;3.83;;;22.40;96.90;;;;;;4070787;29;20095;-61
2023/08/11 00:28:32;;;;;;;5.75;3.45;;;22.40;97.20;;;;;;4070459;29;20044;-60
2023/08/11 00:30:35;;;;;;;5.85;3.53;;;22.40;97.10;;;;;;4070934;29;20542;-61
2023/08/11 00:32:37;;;;;;;5.90;3.25;;;22.40;97.00;;;;;;4070628;29;20138;-60
2023/08/11 00:34:40;;;;;;;7.03;3.35;;;22.40;97.20;;;;;;4068572;29;20414;-62
2023/08/11 00:36:42;;;;;;;7.15;3.08;;;22.40;97.10;;;;;;4070489;29;20040;-61
2023/08/11 00:38:44;;;;;;;11.90;3.63;;;22.40;97.30;;;;;;4069426;29;20044;-60
2023/08/11 00:40:47;;;;;;;7.57;3.78;;;22.40;97.50;;;;;;4069395;29;20052;-60
2023/08/11 00:42:50;;;;;;;8.38;3.42;;;22.30;97.70;;;;;;4069534;29;20070;-61
2023/08/11 00:44:52;;;;;;;4.47;3.30;;;22.30;97.60;;;;;;4068854;29;20493;-61
2023/08/11 00:46:54;;;;;;;7.57;3.60;;;22.30;97.40;;;;;;4069915;29;20474;-60
2023/08/11 00:48:56;;;;;;;3.92;3.30;;;22.30;97.40;;;;;;4069275;29;20082;-59
2023/08/11 00:50:58;;;;;;;9.25;3.60;;;22.30;97.80;;;;;;4069457;29;20418;-60
2023/08/11 00:53:01;;;;;;;6.22;3.70;;;22.20;97.60;;;;;;4069192;29;20048;-60
2023/08/11 00:55:04;;;;;;;9.15;3.70;;;22.20;97.90;;;;;;4068486;29;20047;-61
2023/08/11 00:57:08;;;;;;;6.07;3.40;;;22.20;98.10;;;;;;4068383;29;20115;-60
2023/08/11 00:59:12;;;;;;;7.57;3.83;;;22.10;98.10;;;;;;4069055;29;20111;-60
2023/08/11 01:01:14;;;;;;;5.55;3.65;;;22.10;98.10;;;;;;4068938;29;20451;-61
2023/08/11 01:03:17;;;;;;;5.13;3.30;;;22.10;98.10;;;;;;4063596;29;20044;-61
2023/08/11 01:05:20;;;;;;;6.32;3.30;;;22.10;97.90;;;;;;4052615;29;20048;-62
2023/08/11 01:07:27;;;;;;;6.53;3.60;;;22.10;98.30;;;;;;4053127;29;20074;-62
2023/08/11 01:09:37;;;;;;;6.32;3.55;;;22.10;98.10;;;;;;4052756;29;20044;-62
2023/08/11 01:11:52;;;;;;;5.45;3.15;;;22.10;98.20;;;;;;4052787;29;20467;-62
2023/08/11 01:14:02;;;;;;;4.63;3.20;;;22.10;98.20;;;;;;4054188;29;20053;-62
2023/08/11 01:16:07;;;;;;;5.72;3.50;;;22.00;98.40;;;;;;4067911;29;20048;-63
2023/08/11 01:18:16;;;;;;;7.57;3.83;;;22.00;98.70;;;;;;4068158;29;20075;-62
2023/08/11 01:20:18;;;;;;;5.82;3.45;;;21.90;98.80;;;;;;4068124;29;20052;-62
2023/08/11 01:22:24;;;;;;;6.97;3.67;;;21.90;98.40;;;;;;4068655;29;20103;-61
2023/08/11 01:24:28;;;;;;;7.38;3.63;;;21.90;98.50;;;;;;4068186;29;20048;-61
2023/08/11 01:26:30;;;;;;;4.85;3.08;;;21.90;98.50;;;;;;4068198;29;20482;-61
2023/08/11 01:28:37;;;;;;;5.13;2.83;;;21.90;98.50;;;;;;4067497;29;20078;-59
2023/08/11 01:30:44;;;;;;;6.13;3.42;;;22.00;98.50;;;;;;4068607;29;20071;-62
2023/08/11 01:32:51;;;;;;;5.15;3.30;;;21.90;98.70;;;;;;4068500;29;20562;-61
2023/08/11 01:34:54;;;;;;;6.15;3.10;;;21.90;98.50;;;;;;4067723;29;20052;-62
2023/08/11 01:37:05;;;;;;;4.60;3.40;;;21.90;98.60;;;;;;4068325;29;20052;-62
2023/08/11 01:39:09;;;;;;;5.35;2.92;;;21.80;99.00;;;;;;4068080;29;20052;-62
2023/08/11 01:41:13;;;;;;;6.20;3.40;;;21.80;98.90;;;;;;4068168;29;20048;-62
2023/08/11 01:43:16;;;;;;;4.15;3.15;;;21.80;99.30;;;;;;4068457;29;20472;-62
2023/08/11 01:45:19;;;;;;;6.13;2.88;;;21.70;99.00;;;;;;4067324;29;20486;-62
2023/08/11 01:47:23;;;;;;;6.30;3.10;;;21.70;99.10;;;;;;4067956;29;20107;-61
2023/08/11 01:49:26;;;;;;;5.57;3.00;;;21.80;99.20;;;;;;4068547;29;20055;-61
2023/08/11 01:51:29;;;;;;;7.00;3.53;;;21.70;99.20;;;;;;4068158;29;20475;-60
2023/08/11 01:53:31;;;;;;;6.88;3.03;;;21.70;99.00;;;;;;4067999;29;20446;-61
2023/08/11 01:55:35;;;;;;;8.55;3.60;;;21.80;99.10;;;;;;4067264;29;20048;-60
2023/08/11 01:57:39;;;;;;;6.20;3.40;;;21.80;99.10;;;;;;4068093;29;20052;-61
2023/08/11 01:59:59;;;;;;;8.23;3.50;;;21.80;99.20;;;;;;4068006;29;20126;-61
2023/08/11 02:02:02;;;;;;;7.63;2.97;;;21.70;99.10;;;;;;4068239;29;20047;-61
2023/08/11 02:04:04;;;;;;;4.68;3.13;;;21.70;99.60;;;;;;4055711;29;20084;-60
2023/08/11 02:06:06;;;;;;;9.07;3.85;;;21.60;99.50;;;;;;4051923;29;20060;-60
2023/08/11 02:08:08;;;;;;;5.25;3.10;;;21.60;99.40;;;;;;4052228;29;20058;-60
2023/08/11 02:10:11;;;;;;;9.77;3.13;;;21.60;99.70;;;;;;4051962;29;20080;-60
2023/08/11 02:12:14;;;;;;;5.13;2.90;;;21.60;99.70;;;;;;4052500;29;20059;-60
2023/08/11 02:14:17;;;;;;;3.80;3.10;;;21.50;99.90;;;;;;4056291;29;20055;-60
2023/08/11 02:16:19;;;;;;;7.05;3.08;;;21.60;99.40;;;;;;4066933;29;20498;-61
2023/08/11 02:18:21;;;;;;;7.53;3.38;;;21.60;99.50;;;;;;4067811;29;20080;-60
2023/08/11 02:20:23;;;;;;;6.38;3.03;;;21.50;99.50;;;;;;4067838;29;20511;-64
2023/08/11 02:22:26;;;;;;;4.68;2.97;;;21.50;99.80;;;;;;4068174;29;20490;-60
2023/08/11 02:24:28;;;;;;;4.25;2.85;;;21.50;99.70;;;;;;4068517;29;20188;-59
2023/08/11 02:26:31;;;;;;;4.28;3.08;;;21.50;99.50;;;;;;4067739;29;20096;-60
2023/08/11 02:28:33;;;;;;;4.97;2.92;;;21.50;99.60;;;;;;4067663;29;20403;-60
2023/08/11 02:30:36;;;;;;;6.30;3.72;;;21.50;99.60;;;;;;4067418;29;20052;-60
2023/08/11 02:32:39;;;;;;;4.20;3.00;;;21.50;99.60;;;;;;4067829;29;20076;-60
2023/08/11 02:34:42;;;;;;;7.65;2.97;;;21.50;99.70;;;;;;4067801;29;20056;-60
2023/08/11 02:36:44;;;;;;;7.20;3.10;;;21.40;99.90;;;;;;4068199;29;20076;-60
2023/08/11 02:38:46;;;;;;;4.25;2.90;;;21.40;99.90;;;;;;4067236;29;20133;-60
2023/08/11 02:40:48;;;;;;;4.63;2.90;;;21.40;99.90;;;;;;4067789;29;20131;-60
2023/08/11 02:42:54;;;;;;;6.35;3.17;;;21.40;99.90;;;;;;4067712;29;20080;-58
2023/08/11 02:44:57;;;;;;;6.05;2.90;;;21.40;99.90;;;;;;4066922;29;20055;-59
2023/08/11 02:47:00;;;;;;;8.90;3.05;;;21.40;99.90;;;;;;4066485;29;20052;-62
2023/08/11 02:49:03;;;;;;;6.10;3.25;;;21.40;99.90;;;;;;4067563;29;20463;-59
2023/08/11 02:51:05;;;;;;;4.65;2.90;;;21.40;99.90;;;;;;4066476;29;20486;-59
2023/08/11 02:53:07;;;;;;;6.57;3.28;;;21.40;99.90;;;;;;4067740;29;20543;-60
2023/08/11 02:55:11;;;;;;;6.45;3.13;;;21.40;99.90;;;;;;4067400;29;20115;-60
2023/08/11 02:57:13;;;;;;;7.40;3.47;;;21.40;99.90;;;;;;4068848;29;20048;-60
2023/08/11 02:59:15;;;;;;;5.82;2.97;;;21.40;99.90;;;;;;4070410;29;20080;-59
2023/08/11 03:01:17;;;;;;;4.20;3.10;;;21.40;99.90;;;;;;4070144;29;20048;-59
2023/08/11 03:03:21;;;;;;;5.50;3.35;;;21.40;99.90;;;;;;4065152;29;20072;-61
2023/08/11 03:05:24;;;;;;;5.40;3.00;;;21.40;99.90;;;;;;4054173;29;20495;-62
2023/08/11 03:07:27;;;;;;;4.78;3.05;;;21.40;99.90;;;;;;4054665;29;20116;-62
2023/08/11 03:09:29;;;;;;;7.82;3.53;;;21.40;99.90;;;;;;4054821;29;20053;-62
2023/08/11 03:11:31;;;;;;;6.75;3.15;;;21.30;99.90;;;;;;4054455;29;20493;-62
2023/08/11 03:13:33;;;;;;;3.72;2.65;;;21.30;99.90;;;;;;4054589;29;20139;-62
2023/08/11 03:15:35;;;;;;;6.78;3.20;;;21.30;99.90;;;;;;4068452;29;20409;-61
2023/08/11 03:17:37;;;;;;;5.57;3.50;;;21.30;99.90;;;;;;4070035;29;20055;-60
2023/08/11 03:19:41;;;;;;;4.20;3.08;;;21.20;99.90;;;;;;4070275;29;20450;-59
2023/08/11 03:21:43;;;;;;;5.43;3.08;;;21.20;99.90;;;;;;4070273;29;20140;-60
2023/08/11 03:23:45;;;;;;;7.63;3.45;;;21.20;99.90;;;;;;4070192;29;20044;-60
2023/08/11 03:25:47;;;;;;;7.55;3.10;;;21.20;99.90;;;;;;4069733;29;20415;-60
2023/08/11 03:27:50;;;;;;;4.40;3.13;;;21.20;99.90;;;;;;4069858;29;20052;-60
2023/08/11 03:29:52;;;;;;;5.38;3.08;;;21.20;99.90;;;;;;4070289;29;20051;-60
2023/08/11 03:31:54;;;;;;;10.63;3.33;;;21.20;99.90;;;;;;4070143;29;20450;-60
2023/08/11 03:33:56;;;;;;;6.30;3.10;;;21.20;99.90;;;;;;4070293;29;20392;-62
2023/08/11 03:36:00;;;;;;;5.88;3.33;;;21.20;99.90;;;;;;4069691;29;20127;-60
2023/08/11 03:38:02;;;;;;;5.97;3.17;;;21.20;99.90;;;;;;4069798;29;20123;-60
2023/08/11 03:40:12;;;;;;;3.75;3.03;;;21.10;99.90;;;;;;4069923;29;20072;-60
2023/08/11 03:42:15;;;;;;;6.03;3.33;;;21.10;99.90;;;;;;4069731;29;20052;-61
2023/08/11 03:44:17;;;;;;;6.25;3.38;;;21.10;99.90;;;;;;4068682;29;20058;-60
2023/08/11 03:46:19;;;;;;;6.85;3.47;;;21.10;99.90;;;;;;4068901;29;20063;-60
2023/08/11 03:48:21;;;;;;;8.00;3.75;;;21.00;99.90;;;;;;4068571;29;20092;-61
2023/08/11 03:50:23;;;;;;;6.55;2.92;;;21.00;99.90;;;;;;4069969;29;20044;-61
2023/08/11 03:52:26;;;;;;;7.25;3.55;;;21.00;99.90;;;;;;4069759;29;20052;-61
2023/08/11 03:54:28;;;;;;;8.30;3.42;;;21.00;99.90;;;;;;4069551;29;20615;-61
2023/08/11 03:56:45;;;;;;;4.82;3.00;;;20.90;99.90;;;;;;4068323;29;20052;-63
2023/08/11 03:58:47;;;;;;;5.32;3.05;;;20.90;99.90;;;;;;4069721;29;20052;-63
2023/08/11 04:00:50;;;;;;;4.95;3.17;;;20.90;99.90;;;;;;4069677;29;20060;-62
2023/08/11 04:02:52;;;;;;;5.47;3.08;;;20.90;99.90;;;;;;4067914;29;20087;-62
2023/08/11 04:04:54;;;;;;;5.82;3.25;;;20.90;99.90;;;;;;4053853;29;20123;-62
2023/08/11 04:06:56;;;;;;;3.85;2.83;;;20.90;99.90;;;;;;4053667;29;20487;-62
2023/08/11 04:09:00;;;;;;;8.30;3.35;;;20.90;99.90;;;;;;4053934;29;20052;-62
2023/08/11 04:11:02;;;;;;;8.13;3.08;;;20.90;99.90;;;;;;4053814;29;20477;-61
2023/08/11 04:13:04;;;;;;;5.78;2.90;;;20.90;99.90;;;;;;4052823;29;20057;-62
2023/08/11 04:15:07;;;;;;;7.63;3.28;;;20.90;99.90;;;;;;4062515;29;20048;-61
2023/08/11 04:17:13;;;;;;;5.70;3.20;;;20.90;99.90;;;;;;4069328;29;20083;-62
2023/08/11 04:19:15;;;;;;;5.30;3.15;;;20.90;99.90;;;;;;4069664;29;20058;-62
2023/08/11 04:21:17;;;;;;;5.82;3.22;;;20.90;99.90;;;;;;4069532;29;20048;-62
2023/08/11 04:23:19;;;;;;;7.05;3.42;;;20.90;99.90;;;;;;4069955;29;20055;-62
2023/08/11 04:25:24;;;;;;;4.57;3.28;;;20.90;99.90;;;;;;4069004;29;20144;-62
2023/08/11 04:27:26;;;;;;;5.35;3.30;;;20.90;99.90;;;;;;4069865;29;20051;-62
2023/08/11 04:29:28;;;;;;;7.45;2.90;;;20.90;99.90;;;;;;4070013;29;20082;-60
2023/08/11 04:31:31;;;;;;;6.28;3.53;;;20.90;99.90;;;;;;4069366;29;20052;-60
2023/08/11 04:33:33;;;;;;;5.53;3.10;;;21.00;99.90;;;;;;4069256;29;20115;-60
2023/08/11 04:35:35;;;;;;;6.72;3.50;;;20.90;99.90;;;;;;4068414;29;20454;-62
2023/08/11 04:37:37;;;;;;;9.15;2.90;;;20.90;99.90;;;;;;4069104;29;20135;-62
2023/08/11 04:39:39;;;;;;;6.03;3.33;;;20.90;99.90;;;;;;4068857;29;20052;-62
2023/08/11 04:41:42;;;;;;;7.63;3.30;;;20.80;99.90;;;;;;4064116;29;20073;-62
2023/08/11 04:43:45;;;;;;;4.93;2.97;;;20.90;99.90;;;;;;4053307;29;20059;-62
2023/08/11 04:45:47;;;;;;;4.97;2.97;;;20.90;99.90;;;;;;4052820;29;20056;-62
2023/08/11 04:47:49;;;;;;;9.63;3.67;;;20.80;99.90;;;;;;4053255;29;20053;-61
2023/08/11 04:49:52;;;;;;;6.43;3.50;;;20.80;99.90;;;;;;4053509;29;20056;-61
2023/08/11 04:51:54;;;;;;;5.10;3.22;;;20.90;99.90;;;;;;4053466;29;20052;-60
2023/08/11 04:54:00;;;;;;;7.22;3.80;;;20.80;99.90;;;;;;4053008;29;20056;-60
2023/08/11 04:56:03;;;;;;;6.50;3.35;;;20.90;99.90;;;;;;4052302;29;20410;-60
2023/08/11 04:58:06;;;;;;;5.38;3.75;;;20.90;99.90;;;;;;4052903;29;20053;-62
2023/08/11 05:00:16;;;;;;;6.22;3.33;;;20.90;99.90;;;;;;4052980;29;20051;-60
2023/08/11 05:02:19;;;;;;;7.32;3.97;;;20.90;99.90;;;;;;4053010;29;20056;-59
2023/08/11 05:04:21;;;;;;;5.72;2.80;;;20.90;99.90;;;;;;4052922;29;20050;-59
2023/08/11 05:06:23;;;;;;;7.13;3.60;;;20.90;99.90;;;;;;4052377;29;20411;-61
2023/08/11 05:08:25;;;;;;;6.40;3.50;;;20.90;99.90;;;;;;4052662;29;20469;-59
2023/08/11 05:10:27;;;;;;;9.48;3.83;;;20.90;99.90;;;;;;4052487;29;20060;-60
2023/08/11 05:12:30;;;;;;;9.43;3.33;;;21.00;99.90;;;;;;4053242;29;20059;-60
2023/08/11 05:14:33;;;;;;;7.00;3.63;;;21.00;99.90;;;;;;4058837;29;20459;-62
2023/08/11 05:16:36;;;;;;;8.20;3.92;;;21.00;99.90;;;;;;4067776;29;20181;-62
2023/08/11 05:18:38;;;;;;;7.10;3.55;;;21.10;99.90;;;;;;4068544;29;20044;-62
2023/08/11 05:20:46;;;;;;;5.93;3.47;;;21.10;99.90;;;;;;4068019;29;20083;-61
2023/08/11 05:22:48;;;;;;;10.32;3.97;;;21.10;99.90;;;;;;4068394;29;20447;-60
2023/08/11 05:24:50;;;;;;;4.90;3.33;;;21.10;99.90;;;;;;4067881;29;20498;-61
2023/08/11 05:26:52;;;;;;;5.88;3.85;;;21.10;99.90;;;;;;4067746;29;20052;-60
2023/08/11 05:28:55;;;;;;;5.38;3.40;;;21.20;99.90;;;;;;4066861;29;20060;-60
2023/08/11 05:30:58;;;;;;;4.95;3.65;;;21.20;99.90;;;;;;4068342;29;20052;-62
2023/08/11 05:33:00;;;;;;;5.43;3.72;;;21.20;99.90;;;;;;4068342;29;20059;-59
2023/08/11 05:35:03;;;;;;;9.57;3.40;;;21.20;99.90;;;;;;4068591;29;20143;-61
2023/08/11 05:37:05;;;;;;;6.18;3.15;;;21.20;99.90;;;;;;4067654;29;20052;-62
2023/08/11 05:39:10;;;;;;;8.27;3.92;;;21.20;99.90;;;;;;4067780;29;20059;-62
2023/08/11 05:41:12;;;;;;;8.18;3.30;;;21.20;99.90;;;;;;4068449;29;20052;-61
2023/08/11 05:43:15;;;;;;;8.15;3.63;;;21.20;99.90;;;;;;4067008;29;20052;-62
2023/08/11 05:45:17;;;;;;;6.25;3.35;;;21.30;99.90;;;;;;4067500;29;20163;-62
2023/08/11 05:47:21;;;;;;;5.03;3.60;;;21.30;99.90;;;;;;4067807;29;20071;-62
2023/08/11 05:49:23;;;;;;;6.15;3.10;;;21.30;99.90;;;;;;4067851;29;20056;-60
2023/08/11 05:51:26;;;;;;;10.85;3.40;;;21.30;99.90;;;;;;4068386;29;20487;-60
2023/08/11 05:53:28;;;;;;;8.95;3.58;;;21.40;99.90;;;;;;4067947;29;20080;-60
2023/08/11 05:55:30;;;;;;;7.85;4.07;;;21.40;99.90;;;;;;4067840;29;20056;-60
2023/08/11 05:57:32;;;;;;;10.23;3.95;;;21.40;99.90;;;;;;4067748;29;20052;-61
2023/08/11 05:59:34;;;;;;;9.85;4.03;;;21.50;99.90;;;;;;4068159;29;20148;-60
2023/08/11 06:01:37;;;;;;;6.95;3.88;;;21.60;99.90;;;;;;4068069;29;20459;-61
2023/08/11 06:03:40;;;;;;;5.32;3.53;;;21.60;99.90;;;;;;4060339;29;20048;-60
2023/08/11 06:05:42;;;;;;;6.90;3.15;;;21.60;99.90;;;;;;4036299;29;20106;-62
2023/08/11 06:07:44;;;;;;;6.22;3.28;;;21.70;99.90;;;;;;4036574;29;20056;-60
2023/08/11 06:10:01;;;;;;;5.70;3.45;;;21.80;99.90;;;;;;4047129;29;20053;-63
2023/08/11 06:12:04;;;;;;;9.48;4.00;;;21.70;99.90;;;;;;4052395;29;20525;-61
2023/08/11 06:14:06;;;;;;;9.93;3.85;;;21.80;99.90;;;;;;4055444;29;20148;-61
2023/08/11 06:16:08;;;;;;;8.63;3.78;;;21.80;99.90;;;;;;4067780;29;20118;-61
2023/08/11 06:18:11;;;;;;;11.50;4.40;;;21.80;99.90;;;;;;4068649;29;20044;-60
2023/08/11 06:20:14;;;;;;;9.70;4.05;;;21.90;99.90;;;;;;4068705;29;20062;-61
2023/08/11 06:22:31;;;;;;;8.20;3.58;;;22.00;99.90;;;;;;4068474;29;20099;-61
2023/08/11 06:24:33;;;;;;;13.00;4.22;;;22.10;99.90;;;;;;4068387;29;20054;-61
2023/08/11 06:26:35;;;;;;;6.22;3.80;;;22.10;99.90;;;;;;4067210;29;20468;-59
2023/08/11 06:28:37;;;;;;;8.77;3.38;;;22.10;99.90;;;;;;4068220;29;20056;-60
2023/08/11 06:30:40;;;;;;;9.02;3.25;;;22.20;99.90;;;;;;4068001;29;20112;-60
2023/08/11 06:32:43;;;;;;;14.23;3.60;;;22.20;99.90;;;;;;4069567;29;20052;-60
2023/08/11 06:34:45;;;;;;;12.38;3.90;;;22.30;99.90;;;;;;4069426;29;20391;-60
2023/08/11 06:36:49;;;;;;;7.88;2.90;;;22.20;99.90;;;;;;4070320;29;20048;-60
2023/08/11 06:38:51;;;;;;;5.18;3.10;;;22.30;99.90;;;;;;4071100;29;20486;-59
2023/08/11 06:40:53;;;;;;;6.20;2.22;;;22.30;99.90;;;;;;4070675;29;20107;-60
2023/08/11 06:42:55;;;;;;;4.55;2.75;;;22.30;99.90;;;;;;4070924;29;20099;-60
2023/08/11 06:44:57;;;;;;;6.10;2.50;;;22.40;99.90;;;;;;4070877;29;20071;-60
2023/08/11 06:46:59;;;;;;;6.28;2.55;;;22.40;99.90;;;;;;4070191;29;20194;-60
2023/08/11 06:49:02;;;;;;;9.65;2.60;;;22.40;99.90;;;;;;4070478;29;20104;-60
2023/08/11 06:51:04;;;;;;;7.47;2.60;;;22.50;99.90;;;;;;4070348;29;20048;-60
2023/08/11 06:53:08;;;;;;;8.88;2.63;;;22.60;99.90;;;;;;4069249;29;20100;-59
2023/08/11 06:55:10;;;;;;;7.85;2.90;;;22.70;99.90;;;;;;4070587;29;20155;-60
2023/08/11 06:57:12;;;;;;;6.43;2.95;;;22.80;99.90;;;;;;4069859;29;20072;-60
2023/08/11 06:59:15;;;;;;;11.77;3.42;;;22.90;99.90;;;;;;4070453;29;20576;-60
2023/08/11 07:01:18;;;;;;;4.85;2.88;;;23.00;99.90;;;;;;4070402;29;20260;-60
2023/08/11 07:03:20;;;;;;;5.85;2.60;;;23.10;99.90;;;;;;4067165;29;20040;-60
2023/08/11 07:05:22;;;;;;;6.43;2.58;;;23.10;99.90;;;;;;4056313;29;20123;-60
2023/08/11 07:07:24;;;;;;;5.90;2.67;;;23.30;99.90;;;;;;4056166;29;20059;-60
2023/08/11 07:09:28;;;;;;;6.40;3.22;;;23.30;99.90;;;;;;4054814;29;20044;-60
2023/08/11 07:11:30;;;;;;;6.07;2.47;;;23.20;99.90;;;;;;4054651;29;20411;-62
2023/08/11 07:13:33;;;;;;;5.55;2.80;;;23.20;99.90;;;;;;4055123;29;20507;-60
2023/08/11 07:15:35;;;;;;;7.07;2.72;;;23.20;99.90;;;;;;4068663;29;20104;-61
2023/08/11 07:17:40;;;;;;;;;;;23.20;99.90;;;;;;4071358;29;20087;-60
2023/08/11 07:19:42;;;;;;;5.15;3.15;;;23.30;99.90;;;;;;4068393;29;20266;-60
2023/08/11 07:21:44;;;;;;;8.10;3.40;;;23.10;99.90;;;;;;4056951;29;20052;-61
2023/08/11 07:23:47;;;;;;;6.25;2.90;;;23.10;99.90;;;;;;4055993;29;20044;-60
2023/08/11 07:25:50;;;;;;;6.18;3.05;;;23.10;99.90;;;;;;4055248;29;20136;-60
2023/08/11 07:27:52;;;;;;;7.13;3.13;;;23.20;99.90;;;;;;4055729;29;20053;-59
2023/08/11 07:29:54;;;;;;;6.20;3.13;;;23.20;99.90;;;;;;4055492;29;20415;-59
2023/08/11 07:31:57;;;;;;;8.88;2.72;;;23.30;99.90;;;;;;4055391;29;20491;-59
2023/08/11 07:33:59;;;;;;;8.93;2.85;;;23.40;99.90;;;;;;4054993;29;20522;-63
2023/08/11 07:36:01;;;;;;;5.38;3.42;;;23.30;99.90;;;;;;4055044;29;20062;-59
2023/08/11 07:38:04;;;;;;;11.02;3.30;;;23.30;99.90;;;;;;4055303;29;20393;-61
2023/08/11 07:40:08;;;;;;;6.32;3.38;;;23.30;99.90;;;;;;4054508;29;20497;-61
2023/08/11 07:42:11;;;;;;;8.07;3.72;;;23.40;99.90;;;;;;4054380;29;20056;-61
2023/08/11 07:44:15;;;;;;;4.93;2.83;;;23.50;99.90;;;;;;4054127;29;20059;-62
2023/08/11 07:46:17;;;;;;;6.07;2.97;;;23.50;99.90;;;;;;4053980;29;20431;-62
2023/08/11 07:48:19;;;;;;;12.93;3.42;;;23.60;99.90;;;;;;4054641;29;20048;-62
2023/08/11 07:50:21;;;;;;;13.65;3.28;;;23.70;99.90;;;;;;4055883;29;20108;-61
2023/08/11 07:52:23;;;;;;;7.45;3.33;;;23.80;99.90;;;;;;4057208;29;20048;-62
2023/08/11 07:54:25;;;;;;;8.05;3.60;;;23.90;99.90;;;;;;4056864;29;20483;-62
2023/08/11 07:56:28;;;;;;;7.97;3.75;;;23.90;99.90;;;;;;4057338;29;20104;-62
2023/08/11 07:58:31;;;;;;;6.35;3.40;;;23.90;99.90;;;;;;4057429;29;20052;-62
2023/08/11 08:00:33;;;;;;;6.38;3.20;;;23.90;99.90;;;;;;4056954;29;20049;-65
2023/08/11 08:02:36;;;;;;;9.73;3.72;;;24.00;99.90;;;;;;4056742;29;20052;-61
2023/08/11 08:04:38;;;;;;;6.28;3.70;;;23.90;99.90;;;;;;4057145;29;20048;-61
2023/08/11 08:06:45;;;;;;;7.22;3.42;;;23.90;99.90;;;;;;4056351;29;20064;-62
2023/08/11 08:08:47;;;;;;;12.95;3.53;;;23.90;99.90;;;;;;4055492;29;20119;-62
2023/08/11 08:10:49;;;;;;;10.90;3.88;;;24.10;99.90;;;;;;4056342;29;20083;-61
2023/08/11 08:12:51;;;;;;;8.77;3.90;;;24.20;99.90;;;;;;4057543;29;20053;-62
2023/08/11 08:14:55;;;;;;;6.38;3.15;;;24.10;99.90;;;;;;4063356;29;20051;-62
2023/08/11 08:17:01;;;;;;;7.80;3.97;;;24.30;99.90;;;;;;4069268;29;20051;-62
2023/08/11 08:19:04;;;;;;;10.57;4.03;;;24.40;99.90;;;;;;4070818;29;20162;-62
2023/08/11 08:21:07;;;;;;;8.43;3.53;;;24.50;99.90;;;;;;4071967;29;20048;-61
2023/08/11 08:23:09;;;;;;;9.55;3.92;;;24.60;99.90;;;;;;4070245;29;20059;-61
2023/08/11 08:25:15;;;;;;;8.57;4.03;;;24.80;99.70;;;;;;4069877;29;20052;-62
2023/08/11 08:27:23;;;;;;;8.40;4.50;;;24.70;99.60;;;;;;4069140;29;20056;-61
2023/08/11 08:29:25;;;;;;;4.70;3.00;;;24.70;99.60;;;;;;4069586;29;20072;-61
2023/08/11 08:31:29;;;;;;;11.30;3.65;;;24.70;99.40;;;;;;4073449;29;20052;-62
2023/08/11 08:33:34;;;;;;;5.32;3.38;;;24.90;99.50;;;;;;4071372;29;20070;-60
2023/08/11 08:35:36;;;;;;;;;;;24.90;99.10;;;;;;4055860;29;20052;-59
2023/08/11 08:37:38;;;;;;;7.30;3.65;;;24.90;99.00;;;;;;4055098;29;19930;-60
2023/08/11 08:39:41;;;;;;;8.65;3.67;;;24.90;99.10;;;;;;4053147;29;20052;-59
2023/08/11 08:41:44;;;;;;;6.30;3.67;;;24.90;99.00;;;;;;4053664;29;20066;-59
2023/08/11 08:43:47;;;;;;;7.32;3.95;;;24.90;98.90;;;;;;4053741;29;20052;-62
2023/08/11 08:45:50;;;;;;;6.38;4.05;;;24.90;98.70;;;;;;4053142;29;20476;-63
2023/08/11 08:47:57;;;;;;;10.88;3.85;;;25.00;98.70;;;;;;4053486;29;20099;-63
2023/08/11 08:50:01;;;;;;;8.80;3.70;;;25.10;98.70;;;;;;4056103;29;20087;-61
2023/08/11 08:52:03;;;;;;;9.60;4.35;;;25.10;98.50;;;;;;4055421;29;20080;-62
2023/08/11 08:54:09;;;;;;;6.73;3.30;;;25.20;98.20;;;;;;4055864;29;20079;-61
2023/08/11 08:56:12;;;;;;;7.85;3.08;;;25.30;98.40;;;;;;4053981;29;20074;-62
2023/08/11 08:58:15;;;;;;;7.25;3.90;;;25.40;98.40;;;;;;4053161;29;20483;-61
2023/08/11 09:00:18;;;;;;;8.68;3.28;;;25.30;97.90;;;;;;4053573;29;20558;-63
2023/08/11 09:02:22;;;;;;;8.02;4.35;;;25.30;98.10;;;;;;4053559;29;20075;-65
2023/08/11 09:04:27;;;;;;;4.53;3.50;;;25.30;98.10;;;;;;4059118;29;20108;-59
2023/08/11 09:06:29;;;;;;;7.05;3.30;;;25.40;98.10;;;;;;4057239;29;20056;-62
2023/08/11 09:08:32;;;;;;;6.68;3.72;;;25.50;98.10;;;;;;4056142;29;20476;-59
2023/08/11 09:10:36;;;;;;;5.03;3.45;;;25.50;97.80;;;;;;4055820;29;20072;-59
2023/08/11 09:12:44;;;;;;;5.18;3.30;;;25.50;97.80;;;;;;4055901;29;20089;-58
2023/08/11 09:14:46;;;;;;;5.53;3.33;;;25.60;97.70;;;;;;4064929;29;20044;-60
2023/08/11 09:16:51;;;;;;;9.65;3.55;;;25.50;97.60;;;;;;4070659;29;20056;-61
2023/08/11 09:18:54;;;;;;;6.20;4.03;;;25.60;97.60;;;;;;4075476;29;20052;-62
2023/08/11 09:21:00;;;;;;;9.13;3.30;;;25.60;97.60;;;;;;4073472;29;20048;-60
2023/08/11 09:23:05;;;;;;;5.30;3.13;;;25.80;97.40;;;;;;4072959;29;20040;-59
2023/08/11 09:25:07;;;;;;;5.05;3.10;;;25.90;97.30;;;;;;4073768;29;20207;-65
2023/08/11 09:27:09;;;;;;;5.90;3.30;;;25.80;97.00;;;;;;4070797;29;20044;-62
2023/08/11 09:29:12;;;;;;;4.32;3.45;;;25.90;97.20;;;;;;4068800;29;20111;-62
2023/08/11 09:31:14;;;;;;;8.10;3.80;;;25.90;97.10;;;;;;4068754;29;20048;-62
2023/08/11 09:33:17;;;;;;;9.20;3.67;;;26.00;97.10;;;;;;4069245;29;20048;-65
2023/08/11 09:35:23;;;;;;;5.10;3.70;;;26.10;97.20;;;;;;4074276;29;20048;-62
2023/08/11 09:37:27;;;;;;;8.18;3.88;;;26.00;96.90;;;;;;4070666;29;20048;-61
2023/08/11 09:39:30;;;;;;;6.55;3.38;;;25.90;96.80;;;;;;4068886;29;20052;-61
2023/08/11 09:41:39;;;;;;;5.63;3.25;;;25.80;97.00;;;;;;4069702;29;20044;-62
2023/08/11 09:43:46;;;;;;;4.40;3.10;;;25.90;96.90;;;;;;4068917;29;20051;-62
2023/08/11 09:45:48;;;;;;;9.93;3.38;;;26.00;97.20;;;;;;4072320;29;20479;-62
2023/08/11 09:47:50;;;;;;;9.90;3.38;;;26.00;97.10;;;;;;4071417;29;20055;-61
2023/08/11 09:49:52;;;;;;;7.88;3.65;;;26.00;96.80;;;;;;4073806;29;20100;-62
2023/08/11 09:51:57;;;;;;;8.73;3.40;;;26.10;96.90;;;;;;4077193;29;20059;-63
2023/08/11 09:54:06;;;;;;;7.05;3.30;;;26.10;97.10;;;;;;4075914;29;20055;-63
2023/08/11 09:56:12;;;;;;;8.02;3.55;;;26.20;96.40;;;;;;4075831;29;20411;-62
2023/08/11 09:58:17;;;;;;;7.80;3.20;;;26.10;96.50;;;;;;4073863;29;20067;-63
2023/08/11 10:00:19;;;;;;;4.57;2.85;;;26.20;96.70;;;;;;4073236;29;20056;-62
2023/08/11 10:02:25;;;;;;;5.82;2.90;;;26.30;96.50;;;;;;4072555;29;20084;-64
2023/08/11 10:04:34;;;;;;;4.82;2.92;;;26.40;96.40;;;;;;4062668;29;20044;-62
2023/08/11 10:06:41;;;;;;;7.13;3.30;;;26.50;96.60;;;;;;4059817;29;20135;-61
2023/08/11 10:08:45;;;;;;;7.00;2.85;;;26.50;96.70;;;;;;4062012;29;20053;-61
2023/08/11 10:10:48;;;;;;;5.65;3.20;;;26.50;96.50;;;;;;4048025;29;20079;-61
2023/08/11 10:12:58;;;;;;;6.50;2.95;;;26.60;96.30;;;;;;4054982;29;20162;-61
2023/08/11 10:15:01;;;;;;;6.28;3.03;;;26.60;96.30;;;;;;4070802;29;20135;-63
2023/08/11 10:17:03;;;;;;;9.20;3.08;;;26.60;96.20;;;;;;4074507;29;20048;-61
2023/08/11 10:19:06;;;;;;;10.43;3.10;;;26.70;96.30;;;;;;4075912;29;20458;-61
2023/08/11 10:21:09;;;;;;;11.07;2.72;;;26.90;96.20;;;;;;4077058;29;20111;-60
2023/08/11 10:23:13;;;;;;;11.05;3.25;;;27.00;95.90;;;;;;4076990;29;20056;-62
2023/08/11 10:25:16;;;;;;;7.18;3.13;;;27.10;96.00;;;;;;4077791;29;20080;-60
2023/08/11 10:27:19;;;;;;;9.93;3.05;;;27.00;95.70;;;;;;4076432;29;20433;-60
2023/08/11 10:29:22;;;;;;;9.77;4.63;;;27.00;95.70;;;;;;4076801;29;20099;-61
2023/08/11 10:31:25;;;;;;;8.85;2.97;;;27.00;95.70;;;;;;4076920;29;20056;-60
2023/08/11 10:33:29;;;;;;;7.10;2.63;;;27.00;95.90;;;;;;4081220;29;20059;-61
2023/08/11 10:35:34;;;;;;;8.95;3.00;;;27.00;95.40;;;;;;4077658;29;20052;-63
2023/08/11 10:37:38;;;;;;;11.52;3.38;;;26.90;95.50;;;;;;4077014;29;20131;-64
2023/08/11 10:39:40;;;;;;;7.22;3.35;;;26.90;95.30;;;;;;4076079;29;20048;-60
2023/08/11 10:41:45;;;;;;;5.88;2.85;;;26.90;95.20;;;;;;4066279;29;20079;-60